Time;durP1;ratioP1;P1;durP2;ratioP2;P2;SDS_P1;SDS_P2;PMS_P1;PMS_P2;Temp;Humidity;BMP_temperature;BMP_pressure;BME280_temperature;BME280_humidity;BME280_pressure;Samples;Min_cycle;Max_cycle;Signal;HPM_P1;HPM_P2
2021/01/03 00:01:44;;;;;;;29.90;17.48;;;4.10;94.40;;;;;;5013288;28;20052;-56
2021/01/03 00:04:10;;;;;;;25.80;16.60;;;4.00;94.40;;;;;;5013813;28;20046;-56
2021/01/03 00:06:36;;;;;;;25.88;16.88;;;4.00;94.60;;;;;;5013561;28;20049;-56
2021/01/03 00:09:02;;;;;;;28.52;16.70;;;4.10;94.60;;;;;;5013457;28;20108;-56
2021/01/03 00:11:28;;;;;;;26.98;18.70;;;4.10;94.60;;;;;;5013788;28;20050;-56
2021/01/03 00:13:53;;;;;;;27.85;18.55;;;4.10;94.60;;;;;;5013545;28;20103;-56
2021/01/03 00:16:19;;;;;;;32.40;19.05;;;4.20;94.60;;;;;;5013589;28;20053;-57
2021/01/03 00:18:45;;;;;;;31.30;18.08;;;4.20;94.60;;;;;;5013650;28;20480;-56
2021/01/03 00:21:11;;;;;;;27.02;18.50;;;4.20;94.60;;;;;;5013809;28;20046;-56
2021/01/03 00:23:38;;;;;;;31.13;18.92;;;4.20;94.60;;;;;;5013547;28;20114;-56
2021/01/03 00:26:04;;;;;;;27.02;17.50;;;4.20;94.70;;;;;;5013484;28;20050;-56
2021/01/03 00:28:29;;;;;;;29.40;17.73;;;4.30;94.70;;;;;;5013418;28;20041;-56
2021/01/03 00:30:55;;;;;;;31.05;18.92;;;4.20;94.60;;;;;;5012933;28;20049;-56
2021/01/03 00:33:21;;;;;;;33.65;20.70;;;4.30;94.60;;;;;;5011647;28;20140;-56
2021/01/03 00:35:47;;;;;;;37.95;20.15;;;4.30;94.60;;;;;;5013347;28;20046;-56
2021/01/03 00:38:14;;;;;;;38.17;21.58;;;4.30;94.70;;;;;;5013181;28;20046;-56
2021/01/03 00:40:40;;;;;;;49.03;22.92;;;4.30;94.70;;;;;;5013482;28;20114;-56
2021/01/03 00:43:08;;;;;;;64.07;28.33;;;4.30;94.70;;;;;;5013061;28;20042;-56
2021/01/03 00:45:35;;;;;;;65.43;30.43;;;4.30;94.80;;;;;;5012803;28;20050;-56
2021/01/03 00:48:02;;;;;;;74.70;30.33;;;4.20;95.00;;;;;;5013166;28;20042;-56
2021/01/03 00:50:27;;;;;;;72.32;31.75;;;4.20;95.00;;;;;;5013121;28;20053;-56
2021/01/03 00:52:53;;;;;;;76.53;31.55;;;4.30;95.00;;;;;;5013000;28;20050;-56
2021/01/03 00:55:19;;;;;;;85.50;34.53;;;4.20;95.20;;;;;;5012989;28;20461;-56
2021/01/03 00:57:45;;;;;;;75.82;33.60;;;4.20;95.20;;;;;;5012761;28;20133;-56
2021/01/03 01:00:21;;;;;;;80.13;33.78;;;4.20;95.20;;;;;;5012655;28;20148;-56
2021/01/03 01:02:47;;;;;;;81.93;34.00;;;4.20;95.20;;;;;;5012876;28;20041;-55
2021/01/03 01:05:13;;;;;;;78.63;33.75;;;4.30;95.20;;;;;;5012591;28;20041;-56
2021/01/03 01:07:39;;;;;;;81.88;35.10;;;4.30;95.10;;;;;;5012727;28;20070;-56
2021/01/03 01:10:15;;;;;;;82.38;35.42;;;4.30;95.00;;;;;;5012419;28;20081;-56
2021/01/03 01:12:42;;;;;;;87.38;35.65;;;4.30;95.00;;;;;;5012951;28;20045;-56
2021/01/03 01:15:17;;;;;;;75.45;35.33;;;4.30;95.00;;;;;;5012728;28;20046;-56
2021/01/03 01:17:47;;;;;;;86.78;36.38;;;4.30;94.90;;;;;;5012752;28;20050;-56
2021/01/03 01:20:15;;;;;;;79.70;35.65;;;4.30;94.90;;;;;;5012562;28;20045;-56
2021/01/03 01:22:41;;;;;;;68.70;34.30;;;4.30;95.00;;;;;;5012471;28;20100;-56
2021/01/03 01:25:07;;;;;;;77.18;33.47;;;4.30;95.10;;;;;;5012348;28;20117;-56
2021/01/03 01:27:33;;;;;;;81.72;33.67;;;4.30;95.10;;;;;;5012423;28;20048;-56
2021/01/03 01:29:59;;;;;;;71.68;33.47;;;4.30;95.10;;;;;;5012409;28;20045;-56
2021/01/03 01:32:25;;;;;;;75.40;32.75;;;4.30;95.00;;;;;;5012710;28;20078;-56
2021/01/03 01:34:50;;;;;;;92.05;36.95;;;4.30;94.90;;;;;;5012572;28;20049;-56
2021/01/03 01:37:16;;;;;;;72.57;33.28;;;4.30;95.00;;;;;;5012369;28;20554;-56
2021/01/03 01:39:42;;;;;;;81.15;35.22;;;4.30;95.00;;;;;;5012200;28;20053;-56
2021/01/03 01:42:08;;;;;;;79.80;33.63;;;4.40;95.10;;;;;;5013568;28;20046;-56
2021/01/03 01:44:33;;;;;;;86.20;34.92;;;4.30;95.00;;;;;;5016365;28;20099;-56
2021/01/03 01:47:06;;;;;;;75.03;32.53;;;4.30;95.10;;;;;;5016444;28;20396;-56
2021/01/03 01:49:40;;;;;;;78.20;33.95;;;4.30;95.00;;;;;;5016504;28;20046;-56
2021/01/03 01:52:09;;;;;;;67.70;32.70;;;4.30;95.00;;;;;;5016451;28;20129;-56
2021/01/03 01:54:39;;;;;;;66.25;31.17;;;4.30;94.90;;;;;;5016256;28;20045;-55
2021/01/03 01:57:14;;;;;;;71.85;32.83;;;4.30;94.90;;;;;;5016380;28;20065;-56
2021/01/03 01:59:43;;;;;;;70.30;33.05;;;4.30;94.90;;;;;;5016117;28;20092;-56
2021/01/03 02:02:17;;;;;;;73.50;32.97;;;4.40;94.90;;;;;;5016127;28;20050;-56
2021/01/03 02:05:17;;;;;;;71.03;32.50;;;4.40;94.90;;;;;;5015972;28;20427;-56
2021/01/03 02:07:53;;;;;;;66.22;31.58;;;4.30;94.80;;;;;;5015947;28;20129;-56
2021/01/03 02:10:38;;;;;;;74.35;32.83;;;4.40;94.90;;;;;;5015595;28;20057;-56
2021/01/03 02:13:04;;;;;;;67.60;32.45;;;4.30;94.80;;;;;;5015768;28;20050;-56
2021/01/03 02:15:32;;;;;;;68.55;33.45;;;4.30;94.80;;;;;;5016014;28;20046;-56
2021/01/03 02:18:01;;;;;;;72.07;32.65;;;4.30;94.90;;;;;;5015695;28;20049;-56
2021/01/03 02:20:33;;;;;;;69.95;32.92;;;4.40;94.90;;;;;;5015801;28;20132;-56
2021/01/03 02:23:05;;;;;;;74.93;35.03;;;4.30;94.90;;;;;;5015574;28;20567;-56
2021/01/03 02:25:31;;;;;;;71.65;34.08;;;4.30;94.90;;;;;;5015909;28;20042;-56
2021/01/03 02:28:11;;;;;;;65.22;31.38;;;4.30;94.90;;;;;;5015805;28;20099;-56
2021/01/03 02:30:39;;;;;;;72.35;32.08;;;4.30;94.80;;;;;;5015802;28;20045;-56
2021/01/03 02:33:22;;;;;;;66.45;31.77;;;4.30;94.80;;;;;;5015400;28;20180;-56
2021/01/03 02:35:50;;;;;;;67.38;33.80;;;4.30;94.80;;;;;;5015272;28;20483;-56
2021/01/03 02:38:24;;;;;;;68.60;32.35;;;4.30;94.80;;;;;;5015661;28;20057;-56
2021/01/03 02:40:49;;;;;;;71.57;32.95;;;4.20;94.70;;;;;;5015764;28;20046;-56
2021/01/03 02:43:15;;;;;;;72.65;33.10;;;4.20;94.80;;;;;;5015636;28;20050;-55
2021/01/03 02:45:41;;;;;;;73.00;34.30;;;4.30;94.90;;;;;;5014296;28;20077;-56
2021/01/03 02:48:17;;;;;;;74.03;34.20;;;4.20;94.90;;;;;;5015191;28;20057;-56
2021/01/03 02:50:43;;;;;;;77.43;35.03;;;4.30;94.90;;;;;;5015272;28;20042;-56
2021/01/03 02:53:09;;;;;;;79.97;34.05;;;4.20;94.90;;;;;;5014992;28;20530;-56
2021/01/03 02:55:35;;;;;;;73.20;33.92;;;4.20;94.90;;;;;;5015161;28;20065;-56
2021/01/03 02:58:01;;;;;;;76.13;31.77;;;4.20;95.00;;;;;;5014849;28;20049;-56
2021/01/03 03:00:35;;;;;;;71.15;33.70;;;4.30;94.90;;;;;;5014931;28;20038;-56
2021/01/03 03:03:01;;;;;;;66.13;31.92;;;4.20;94.90;;;;;;5015328;28;20038;-55
2021/01/03 03:05:27;;;;;;;73.82;33.85;;;4.20;94.80;;;;;;5014916;28;20053;-56
2021/01/03 03:07:54;;;;;;;77.65;31.63;;;4.20;94.90;;;;;;5014795;28;20483;-56
2021/01/03 03:10:21;;;;;;;74.78;34.13;;;4.20;94.80;;;;;;5014754;28;20061;-56
2021/01/03 03:12:49;;;;;;;75.55;34.03;;;4.20;94.80;;;;;;5014832;28;20061;-56
2021/01/03 03:15:16;;;;;;;77.57;34.03;;;4.20;94.80;;;;;;5014679;28;20049;-56
2021/01/03 03:17:41;;;;;;;66.78;31.88;;;4.20;94.80;;;;;;5014825;28;20050;-56
2021/01/03 03:20:08;;;;;;;66.10;32.58;;;4.20;94.60;;;;;;5014717;28;20071;-56
2021/01/03 03:22:33;;;;;;;66.80;31.83;;;4.20;94.70;;;;;;5014714;28;20135;-56
2021/01/03 03:24:59;;;;;;;67.32;30.80;;;4.10;94.70;;;;;;5014555;28;20500;-56
2021/01/03 03:27:25;;;;;;;76.65;32.78;;;4.20;94.70;;;;;;5014320;28;20050;-56
2021/01/03 03:29:51;;;;;;;65.13;31.90;;;4.10;94.70;;;;;;5014676;28;20053;-56
2021/01/03 03:32:18;;;;;;;67.15;32.00;;;4.10;94.70;;;;;;5014307;28;20064;-56
2021/01/03 03:34:45;;;;;;;68.57;34.45;;;4.20;94.60;;;;;;5014329;28;20046;-56
2021/01/03 03:37:12;;;;;;;62.90;32.92;;;4.10;94.60;;;;;;5014455;28;20050;-56
2021/01/03 03:39:38;;;;;;;72.30;32.75;;;4.20;94.70;;;;;;5014372;28;20431;-56
2021/01/03 03:42:04;;;;;;;67.80;33.40;;;4.20;94.50;;;;;;5014505;28;20137;-56
2021/01/03 03:44:30;;;;;;;71.35;34.88;;;4.10;94.40;;;;;;5013003;28;20127;-55
2021/01/03 03:47:01;;;;;;;81.90;35.65;;;4.10;94.60;;;;;;5014370;28;20483;-56
2021/01/03 03:49:28;;;;;;;82.93;36.95;;;4.10;94.60;;;;;;5014340;28;20054;-56
2021/01/03 03:51:55;;;;;;;86.40;37.42;;;4.10;94.70;;;;;;5013998;28;20042;-56
2021/01/03 03:54:21;;;;;;;84.40;36.38;;;4.10;94.50;;;;;;5013992;28;20464;-56
2021/01/03 03:56:55;;;;;;;75.32;35.13;;;4.10;94.60;;;;;;5014453;28;20050;-56
2021/01/03 03:59:22;;;;;;;64.93;33.35;;;4.00;94.70;;;;;;5013761;28;20492;-56
2021/01/03 04:01:48;;;;;;;72.50;34.95;;;4.00;94.70;;;;;;5013978;28;20073;-56
2021/01/03 04:04:14;;;;;;;76.70;35.10;;;4.00;94.70;;;;;;5013494;28;20108;-56
2021/01/03 04:06:40;;;;;;;78.28;34.05;;;4.00;94.60;;;;;;5013665;28;20542;-56
2021/01/03 04:09:06;;;;;;;89.05;38.17;;;4.00;94.70;;;;;;5013497;28;20061;-56
2021/01/03 04:11:33;;;;;;;73.22;34.20;;;4.00;94.80;;;;;;5013578;28;20488;-56
2021/01/03 04:13:59;;;;;;;70.53;34.38;;;4.00;94.80;;;;;;5013554;28;20046;-56
2021/01/03 04:16:25;;;;;;;72.15;34.47;;;4.00;94.80;;;;;;5013241;28;20511;-56
2021/01/03 04:18:51;;;;;;;80.65;35.63;;;4.00;94.80;;;;;;5013557;28;20049;-56
2021/01/03 04:21:17;;;;;;;69.22;33.05;;;4.00;94.80;;;;;;5013838;28;20050;-56
2021/01/03 04:23:43;;;;;;;71.40;34.05;;;4.00;94.80;;;;;;5013721;28;20148;-56
2021/01/03 04:26:15;;;;;;;79.25;34.00;;;4.00;94.80;;;;;;5013196;28;20139;-56
2021/01/03 04:28:41;;;;;;;72.40;35.03;;;4.00;94.90;;;;;;5013452;28;20120;-56
2021/01/03 04:31:06;;;;;;;73.05;34.00;;;4.00;94.90;;;;;;5013488;28;20476;-57
2021/01/03 04:33:32;;;;;;;73.57;35.92;;;4.00;95.00;;;;;;5013571;28;20050;-56
2021/01/03 04:35:58;;;;;;;71.18;35.28;;;4.00;95.00;;;;;;5013264;28;20066;-56
2021/01/03 04:38:26;;;;;;;76.90;35.05;;;4.00;95.00;;;;;;5013109;28;20137;-56
2021/01/03 04:40:55;;;;;;;73.00;33.45;;;4.00;95.00;;;;;;5012253;28;20093;-56
2021/01/03 04:43:24;;;;;;;74.95;34.78;;;4.00;95.00;;;;;;5013492;28;20078;-56
2021/01/03 04:45:57;;;;;;;75.37;34.10;;;4.00;95.00;;;;;;5013239;28;20065;-56
2021/01/03 04:48:29;;;;;;;73.35;34.53;;;4.00;95.00;;;;;;5013069;28;20042;-56
2021/01/03 04:51:17;;;;;;;67.07;31.98;;;4.00;95.00;;;;;;5013006;28;20053;-56
2021/01/03 04:53:58;;;;;;;69.95;33.53;;;4.00;95.00;;;;;;5013156;28;20042;-56
2021/01/03 04:56:35;;;;;;;71.47;34.88;;;4.00;95.20;;;;;;5013018;28;20050;-56
2021/01/03 04:59:32;;;;;;;68.72;32.97;;;4.00;94.80;;;;;;5013168;28;20041;-56
2021/01/03 05:02:28;;;;;;;69.50;32.33;;;4.00;95.20;;;;;;5012580;28;20052;-56
2021/01/03 05:05:06;;;;;;;73.85;34.33;;;4.00;94.90;;;;;;5012906;28;20042;-56
2021/01/03 05:07:38;;;;;;;78.72;34.33;;;4.00;94.80;;;;;;5012724;28;20096;-56
2021/01/03 05:10:10;;;;;;;76.75;34.15;;;4.00;94.80;;;;;;5012575;28;20066;-56
2021/01/03 05:12:49;;;;;;;69.07;34.58;;;4.10;94.80;;;;;;5012884;28;20065;-56
2021/01/03 05:15:22;;;;;;;64.85;33.13;;;4.10;94.80;;;;;;5012401;28;20046;-56
2021/01/03 05:17:48;;;;;;;76.45;33.40;;;4.10;94.80;;;;;;5012623;28;20054;-56
2021/01/03 05:20:14;;;;;;;65.80;31.90;;;4.10;94.90;;;;;;5012569;28;20466;-56
2021/01/03 05:22:40;;;;;;;71.00;33.15;;;4.10;94.80;;;;;;5010407;28;20045;-56
2021/01/03 05:25:09;;;;;;;71.50;33.05;;;4.10;94.80;;;;;;5012777;28;20429;-56
2021/01/03 05:27:35;;;;;;;77.57;35.63;;;4.10;94.80;;;;;;5012670;28;20054;-56
2021/01/03 05:30:26;;;;;;;77.75;34.53;;;4.10;94.70;;;;;;5012681;28;20050;-56
2021/01/03 05:32:52;;;;;;;;;;;4.10;94.70;;;;;;5012950;28;20084;-56
2021/01/03 05:35:26;;;;;;;71.00;32.80;;;4.10;94.90;;;;;;5012465;28;19971;-56
2021/01/03 05:37:54;;;;;;;64.25;31.58;;;4.10;94.70;;;;;;5012581;28;20049;-55
2021/01/03 05:40:33;;;;;;;71.88;35.13;;;4.10;94.70;;;;;;5011395;28;20046;-55
2021/01/03 05:43:21;;;;;;;68.13;33.70;;;4.10;94.70;;;;;;5012357;28;20128;-56
2021/01/03 05:46:16;;;;;;;71.03;33.65;;;4.10;94.70;;;;;;5012288;28;20555;-56
2021/01/03 05:49:03;;;;;;;73.93;32.97;;;4.10;94.70;;;;;;5012546;28;20096;-56
2021/01/03 05:51:33;;;;;;;71.45;33.78;;;4.20;94.60;;;;;;5012580;28;20424;-55
2021/01/03 05:54:03;;;;;;;75.15;36.35;;;4.10;94.70;;;;;;5012335;28;20431;-56
2021/01/03 05:56:30;;;;;;;72.70;36.00;;;4.10;94.80;;;;;;5012603;28;20740;-56
2021/01/03 05:58:56;;;;;;;69.93;33.15;;;4.10;94.80;;;;;;5011837;28;20041;-56
2021/01/03 06:01:29;;;;;;;73.18;34.75;;;4.10;94.70;;;;;;5011830;28;20050;-56
2021/01/03 06:04:13;;;;;;;74.07;35.28;;;4.10;94.70;;;;;;5012291;28;20041;-56
2021/01/03 06:06:42;;;;;;;70.20;34.33;;;4.10;94.60;;;;;;5011219;28;20068;-56
2021/01/03 06:09:10;;;;;;;68.05;33.35;;;4.10;94.70;;;;;;5011895;28;20076;-56
2021/01/03 06:11:39;;;;;;;72.97;35.92;;;4.10;94.70;;;;;;5012222;28;20053;-56
2021/01/03 06:14:05;;;;;;;72.50;34.05;;;4.10;94.70;;;;;;5012155;28;20104;-56
2021/01/03 06:16:46;;;;;;;71.00;34.40;;;4.20;94.70;;;;;;5010909;28;20045;-56
2021/01/03 06:19:45;;;;;;;76.47;37.83;;;4.10;94.60;;;;;;5012275;28;20049;-55
2021/01/03 06:22:35;;;;;;;81.53;35.70;;;4.10;94.50;;;;;;4970882;28;20047;-56
2021/01/03 06:25:08;;;;;;;;;;;4.10;94.60;;;;;;4971389;28;20556;-56
2021/01/03 06:27:34;;;;;;;74.40;34.85;;;4.10;94.70;;;;;;4971204;28;19925;-56
2021/01/03 06:30:06;;;;;;;78.80;36.10;;;4.10;94.60;;;;;;4974457;28;20049;-56
2021/01/03 06:33:05;;;;;;;83.53;35.92;;;4.10;94.70;;;;;;4974485;28;20055;-56
2021/01/03 06:35:47;;;;;;;86.38;37.13;;;4.10;94.80;;;;;;4974028;28;20043;-55
2021/01/03 06:38:13;;;;;;;89.45;36.78;;;4.10;94.60;;;;;;4974388;28;20071;-55
2021/01/03 06:40:44;;;;;;;78.95;37.75;;;4.10;94.60;;;;;;4974134;28;20079;-55
2021/01/03 06:43:32;;;;;;;79.93;37.67;;;4.10;94.50;;;;;;4974153;28;20058;-55
2021/01/03 06:46:19;;;;;;;81.97;37.50;;;4.10;94.70;;;;;;4974090;28;20047;-55
2021/01/03 06:49:05;;;;;;;91.65;40.15;;;4.10;94.60;;;;;;4973775;28;20525;-55
2021/01/03 06:52:28;;;;;;;81.63;38.28;;;4.10;94.50;;;;;;4973853;28;20142;-55
2021/01/03 06:55:32;;;;;;;77.78;36.67;;;4.10;94.70;;;;;;4897795;29;20047;-55
2021/01/03 06:58:41;;;;;;;82.25;37.45;;;4.10;94.50;;;;;;4899593;29;20561;-55
2021/01/03 07:01:34;;;;;;;86.20;38.08;;;4.10;94.40;;;;;;4954640;29;20436;-56
2021/01/03 07:04:01;;;;;;;75.93;36.00;;;4.10;94.30;;;;;;4951475;29;20044;-55
2021/01/03 07:06:36;;;;;;;82.15;36.65;;;4.10;94.30;;;;;;4954477;29;20083;-55
2021/01/03 07:09:12;;;;;;;85.57;38.65;;;4.10;94.20;;;;;;4954337;29;20047;-55
2021/01/03 07:11:46;;;;;;;75.75;35.47;;;4.10;94.30;;;;;;4954138;29;20145;-55
2021/01/03 07:14:23;;;;;;;85.20;36.78;;;4.10;94.20;;;;;;4954335;29;20047;-55
2021/01/03 07:16:57;;;;;;;78.05;36.25;;;4.10;94.30;;;;;;4954060;29;20390;-55
2021/01/03 07:19:31;;;;;;;79.50;35.53;;;4.10;94.30;;;;;;4954269;29;20533;-56
2021/01/03 07:22:04;;;;;;;81.30;38.03;;;4.10;94.30;;;;;;4954347;29;20039;-55
2021/01/03 07:24:46;;;;;;;82.38;36.17;;;4.10;94.40;;;;;;4938032;29;20054;-55
2021/01/03 07:27:29;;;;;;;79.28;35.45;;;4.10;94.40;;;;;;4953945;29;20043;-56
2021/01/03 07:29:55;;;;;;;71.35;34.17;;;4.10;94.20;;;;;;4970047;28;20060;-56
2021/01/03 07:32:22;;;;;;;74.78;35.72;;;4.10;94.30;;;;;;5014609;28;20046;-56
2021/01/03 07:34:52;;;;;;;72.35;34.97;;;4.10;94.20;;;;;;5014344;28;20479;-55
2021/01/03 07:37:26;;;;;;;71.57;35.53;;;4.10;94.10;;;;;;5014025;28;20488;-56
2021/01/03 07:40:07;;;;;;;73.05;36.28;;;4.10;94.20;;;;;;5013227;28;20046;-56
2021/01/03 07:42:35;;;;;;;69.88;34.78;;;4.00;94.10;;;;;;5014506;28;20099;-55
2021/01/03 07:45:13;;;;;;;75.43;34.13;;;4.00;94.10;;;;;;5014109;28;20049;-55
2021/01/03 07:47:46;;;;;;;65.78;32.67;;;4.00;94.20;;;;;;5014270;28;20050;-56
2021/01/03 07:50:26;;;;;;;67.35;31.45;;;4.00;94.10;;;;;;5014022;28;20046;-55
2021/01/03 07:53:14;;;;;;;64.32;31.00;;;4.00;94.20;;;;;;5014122;28;20050;-55
2021/01/03 07:55:40;;;;;;;66.97;31.67;;;4.00;94.10;;;;;;5013927;28;20057;-56
2021/01/03 07:58:11;;;;;;;62.45;32.22;;;4.00;94.20;;;;;;5013864;28;20042;-56
2021/01/03 08:00:39;;;;;;;63.63;31.05;;;4.00;94.20;;;;;;5013806;28;20056;-55
2021/01/03 08:03:08;;;;;;;59.60;29.75;;;4.00;94.20;;;;;;5013628;28;20403;-56
2021/01/03 08:05:36;;;;;;;64.05;31.25;;;4.00;94.30;;;;;;5014057;28;20064;-56
2021/01/03 08:08:23;;;;;;;59.63;28.73;;;4.00;94.10;;;;;;5013784;28;20100;-55
2021/01/03 08:10:52;;;;;;;57.47;30.40;;;3.90;94.20;;;;;;5013580;28;20101;-56
2021/01/03 08:13:26;;;;;;;59.55;29.38;;;4.00;94.10;;;;;;5013837;28;20049;-56
2021/01/03 08:15:57;;;;;;;58.20;30.10;;;4.00;94.10;;;;;;5013907;28;20053;-56
2021/01/03 08:18:23;;;;;;;56.88;28.77;;;4.00;94.10;;;;;;5013591;28;20050;-56
2021/01/03 08:20:49;;;;;;;54.65;27.95;;;4.00;94.00;;;;;;5013527;28;20081;-56
2021/01/03 08:23:18;;;;;;;62.80;29.17;;;4.00;94.00;;;;;;5013353;28;20500;-56
2021/01/03 08:25:44;;;;;;;55.58;29.80;;;4.00;94.00;;;;;;5013565;28;20046;-56
2021/01/03 08:28:21;;;;;;;55.10;28.63;;;4.00;94.30;;;;;;5013472;28;20054;-56
2021/01/03 08:30:49;;;;;;;58.03;29.10;;;4.00;93.90;;;;;;5013508;28;20045;-56
2021/01/03 08:33:35;;;;;;;56.92;27.75;;;3.90;94.10;;;;;;5013642;28;20053;-56
2021/01/03 08:36:17;;;;;;;56.58;29.15;;;4.00;94.20;;;;;;5013239;28;20046;-56
2021/01/03 08:38:43;;;;;;;71.50;30.08;;;4.00;94.10;;;;;;5013276;28;20046;-56
2021/01/03 08:41:14;;;;;;;53.88;28.67;;;4.00;94.10;;;;;;5013309;28;20045;-56
2021/01/03 08:44:02;;;;;;;60.58;27.52;;;4.00;94.00;;;;;;5012042;28;20512;-55
2021/01/03 08:46:46;;;;;;;58.22;29.38;;;4.00;94.00;;;;;;5012984;28;20056;-56
2021/01/03 08:49:12;;;;;;;55.13;27.83;;;4.00;93.80;;;;;;5013016;28;20038;-56
2021/01/03 08:52:27;;;;;;;54.72;28.48;;;4.00;93.80;;;;;;5011801;28;20042;-56
2021/01/03 08:55:06;;;;;;;56.22;27.27;;;4.10;93.30;;;;;;4971692;28;20062;-55
2021/01/03 08:57:32;;;;;;;54.05;27.92;;;4.10;93.50;;;;;;4971589;28;20183;-55
2021/01/03 08:59:58;;;;;;;51.45;26.58;;;4.00;93.60;;;;;;4971497;28;20070;-56
2021/01/03 09:02:27;;;;;;;54.55;27.92;;;4.00;93.70;;;;;;4971476;28;20047;-56
2021/01/03 09:04:59;;;;;;;52.00;28.30;;;4.10;93.50;;;;;;4971603;28;20480;-55
2021/01/03 09:07:27;;;;;;;55.30;27.50;;;4.10;93.50;;;;;;4971525;28;20559;-56
2021/01/03 09:09:53;;;;;;;52.50;26.73;;;4.10;93.40;;;;;;4971361;28;20054;-55
2021/01/03 09:12:40;;;;;;;55.35;28.90;;;4.10;93.30;;;;;;4971498;28;20047;-56
2021/01/03 09:15:27;;;;;;;58.22;27.67;;;4.00;93.30;;;;;;4971558;28;20043;-56
2021/01/03 09:18:20;;;;;;;55.38;28.55;;;4.10;93.40;;;;;;4971308;28;20057;-56
2021/01/03 09:20:46;;;;;;;57.53;27.35;;;4.10;93.30;;;;;;4971308;28;20069;-55
2021/01/03 09:23:18;;;;;;;59.25;27.83;;;4.10;93.20;;;;;;4971257;28;20049;-55
2021/01/03 09:25:52;;;;;;;53.90;27.35;;;4.10;93.10;;;;;;4971468;28;20042;-55
2021/01/03 09:28:24;;;;;;;54.45;28.10;;;4.10;93.30;;;;;;4971168;28;20047;-56
2021/01/03 09:30:49;;;;;;;53.35;27.73;;;4.10;93.20;;;;;;4984545;28;20443;-56
2021/01/03 09:33:24;;;;;;;50.67;27.25;;;4.10;93.30;;;;;;5012658;28;20054;-56
2021/01/03 09:36:05;;;;;;;51.72;26.95;;;4.10;93.30;;;;;;5012440;28;20050;-55
2021/01/03 09:38:39;;;;;;;50.63;26.42;;;4.20;93.30;;;;;;5012467;28;20184;-55
2021/01/03 09:41:23;;;;;;;54.58;27.15;;;4.10;93.20;;;;;;5012531;28;20081;-56
2021/01/03 09:44:01;;;;;;;57.15;28.63;;;4.20;92.90;;;;;;5012570;28;20042;-56
2021/01/03 09:46:31;;;;;;;52.63;26.70;;;4.20;93.10;;;;;;5012184;28;20495;-55
2021/01/03 09:49:35;;;;;;;54.78;26.40;;;4.20;93.20;;;;;;5012281;28;20052;-55
2021/01/03 09:52:25;;;;;;;52.05;26.65;;;4.20;93.10;;;;;;4971525;28;20057;-55
2021/01/03 09:55:02;;;;;;;51.10;27.10;;;4.20;93.10;;;;;;4971226;28;20042;-56
2021/01/03 09:57:53;;;;;;;49.55;26.50;;;4.30;93.30;;;;;;4971112;28;20058;-56
2021/01/03 10:00:24;;;;;;;51.10;26.52;;;4.30;92.90;;;;;;4971065;28;20430;-56
2021/01/03 10:02:52;;;;;;;49.42;24.88;;;4.30;93.10;;;;;;4971911;28;20536;-56
2021/01/03 10:05:30;;;;;;;54.38;27.33;;;4.30;93.10;;;;;;4974889;28;20043;-56
2021/01/03 10:07:57;;;;;;;50.45;27.90;;;4.30;92.90;;;;;;4974785;28;20133;-56
2021/01/03 10:10:46;;;;;;;51.30;27.08;;;4.30;93.20;;;;;;4974532;28;20066;-55
2021/01/03 10:13:13;;;;;;;51.03;25.45;;;4.30;93.20;;;;;;4974719;28;20054;-56
2021/01/03 10:15:40;;;;;;;58.00;26.85;;;4.30;93.10;;;;;;4974605;28;20046;-56
2021/01/03 10:18:09;;;;;;;48.90;25.90;;;4.30;92.50;;;;;;4974541;28;20082;-55
2021/01/03 10:20:40;;;;;;;;;;;4.30;92.70;;;;;;4974945;28;20391;-56
2021/01/03 10:23:31;;;;;;;48.20;25.98;;;4.30;92.40;;;;;;5000897;28;20431;-55
2021/01/03 10:25:56;;;;;;;45.08;25.23;;;4.30;92.50;;;;;;5015585;28;20049;-55
2021/01/03 10:28:22;;;;;;;50.65;26.83;;;4.30;92.50;;;;;;5015504;28;20045;-55
2021/01/03 10:30:48;;;;;;;46.40;23.35;;;4.30;92.40;;;;;;5015438;28;20034;-55
2021/01/03 10:33:14;;;;;;;47.13;23.48;;;4.30;92.20;;;;;;5015838;28;20054;-56
2021/01/03 10:35:39;;;;;;;48.17;25.35;;;4.30;92.20;;;;;;5015585;28;20046;-56
2021/01/03 10:38:07;;;;;;;48.13;24.58;;;4.40;92.20;;;;;;5015410;28;20061;-56
2021/01/03 10:40:33;;;;;;;52.42;26.45;;;4.30;92.20;;;;;;5015285;28;20408;-56
2021/01/03 10:42:59;;;;;;;46.60;24.23;;;4.40;92.30;;;;;;5015434;28;20141;-56
2021/01/03 10:45:25;;;;;;;41.28;22.77;;;4.40;91.90;;;;;;5015295;28;20470;-55
2021/01/03 10:47:52;;;;;;;46.65;22.48;;;4.40;92.20;;;;;;5015383;28;20053;-55
2021/01/03 10:50:19;;;;;;;42.85;22.05;;;4.40;91.80;;;;;;5015241;28;20046;-56
2021/01/03 10:52:45;;;;;;;41.35;21.85;;;4.40;91.70;;;;;;5015248;28;20054;-56
2021/01/03 10:55:13;;;;;;;42.13;22.23;;;4.40;91.80;;;;;;5013910;28;20041;-56
2021/01/03 10:57:40;;;;;;;44.67;23.17;;;4.40;91.90;;;;;;5015039;28;20046;-56
2021/01/03 11:00:10;;;;;;;38.00;20.45;;;4.50;91.70;;;;;;5015117;28;20046;-56
2021/01/03 11:02:35;;;;;;;38.60;20.45;;;4.70;92.00;;;;;;5015163;28;20053;-56
2021/01/03 11:05:03;;;;;;;40.42;21.88;;;4.70;91.50;;;;;;5014958;28;20042;-55
2021/01/03 11:07:29;;;;;;;40.80;19.58;;;4.70;91.00;;;;;;5014865;28;20076;-56
2021/01/03 11:09:54;;;;;;;35.15;20.42;;;4.70;91.20;;;;;;5014403;28;20093;-56
2021/01/03 11:12:20;;;;;;;38.25;20.70;;;4.70;91.40;;;;;;5014838;28;20049;-56
2021/01/03 11:14:46;;;;;;;37.58;20.35;;;4.70;91.30;;;;;;5014538;28;20452;-56
2021/01/03 11:17:14;;;;;;;40.70;19.52;;;4.70;91.20;;;;;;5014805;28;20084;-56
2021/01/03 11:19:42;;;;;;;40.13;20.67;;;4.70;91.30;;;;;;5014974;28;20068;-56
2021/01/03 11:22:12;;;;;;;38.03;20.48;;;4.70;91.20;;;;;;5014693;28;20048;-55
2021/01/03 11:24:39;;;;;;;40.42;19.38;;;4.70;91.50;;;;;;5014620;28;20046;-56
2021/01/03 11:27:08;;;;;;;39.28;19.15;;;4.70;91.30;;;;;;5014484;28;20081;-56
2021/01/03 11:29:34;;;;;;;31.45;17.42;;;4.70;91.10;;;;;;5014486;28;20071;-55
2021/01/03 11:32:00;;;;;;;35.00;18.45;;;4.70;91.20;;;;;;5014601;28;20050;-56
2021/01/03 11:34:30;;;;;;;32.92;18.27;;;4.80;90.90;;;;;;5014143;28;20499;-55
2021/01/03 11:37:01;;;;;;;32.35;17.50;;;4.70;90.80;;;;;;5014219;28;20456;-55
2021/01/03 11:39:28;;;;;;;35.67;17.35;;;4.80;90.90;;;;;;5014384;28;20811;-55
2021/01/03 11:41:56;;;;;;;30.08;15.90;;;4.80;90.70;;;;;;5014295;28;20046;-56
2021/01/03 11:44:22;;;;;;;24.67;14.15;;;4.90;90.60;;;;;;5014328;28;20045;-55
2021/01/03 11:46:50;;;;;;;22.42;12.32;;;5.00;90.00;;;;;;5013944;28;20123;-56
2021/01/03 11:49:16;;;;;;;21.73;12.48;;;5.00;88.00;;;;;;5014384;28;20060;-55
2021/01/03 11:51:47;;;;;;;16.83;10.70;;;5.00;88.80;;;;;;5014156;28;20053;-56
2021/01/03 11:54:13;;;;;;;16.35;9.68;;;5.00;87.50;;;;;;5013925;28;20077;-56
2021/01/03 11:56:38;;;;;;;14.95;9.07;;;4.80;85.30;;;;;;5013613;28;20062;-56
2021/01/03 11:59:05;;;;;;;17.85;9.52;;;4.80;86.50;;;;;;4999865;28;20093;-55
2021/01/03 12:01:30;;;;;;;12.32;8.75;;;4.70;85.40;;;;;;4993730;28;20069;-55
2021/01/03 12:03:56;;;;;;;12.23;8.48;;;4.70;86.00;;;;;;4993976;28;20053;-56
2021/01/03 12:06:24;;;;;;;15.60;9.65;;;4.80;86.10;;;;;;4994242;28;20117;-56
2021/01/03 12:08:51;;;;;;;14.98;9.23;;;4.80;86.30;;;;;;4993948;28;20042;-56
2021/01/03 12:11:23;;;;;;;15.27;9.27;;;4.80;85.70;;;;;;4993317;28;20046;-56
2021/01/03 12:13:51;;;;;;;11.75;7.95;;;4.80;86.50;;;;;;4994152;28;20046;-56
2021/01/03 12:16:21;;;;;;;13.57;8.88;;;4.80;87.00;;;;;;4993895;28;20054;-55
2021/01/03 12:18:48;;;;;;;11.90;8.45;;;4.80;86.40;;;;;;4993753;28;20492;-56
2021/01/03 12:21:25;;;;;;;13.18;8.30;;;4.80;85.10;;;;;;4993746;28;20055;-55
2021/01/03 12:23:52;;;;;;;11.18;7.45;;;4.80;85.90;;;;;;4994045;28;20046;-56
2021/01/03 12:26:18;;;;;;;13.48;8.07;;;4.80;85.60;;;;;;4993575;28;20049;-56
2021/01/03 12:28:44;;;;;;;10.98;7.72;;;4.80;84.50;;;;;;4993802;28;20054;-56
2021/01/03 12:31:10;;;;;;;10.95;7.57;;;4.80;84.30;;;;;;4993240;28;20113;-56
2021/01/03 12:33:36;;;;;;;9.57;6.82;;;4.80;85.30;;;;;;4993706;28;20132;-56
2021/01/03 12:36:02;;;;;;;8.90;7.07;;;4.80;85.00;;;;;;4993328;28;20457;-55
2021/01/03 12:38:27;;;;;;;10.13;6.88;;;4.70;84.60;;;;;;4993590;28;20404;-56
2021/01/03 12:40:53;;;;;;;7.25;5.40;;;4.70;84.20;;;;;;4993220;28;20057;-56
2021/01/03 12:43:19;;;;;;;7.43;5.55;;;4.60;83.80;;;;;;4992826;28;20043;-56
2021/01/03 12:45:44;;;;;;;7.22;5.63;;;4.50;83.90;;;;;;4974795;28;20593;-56
2021/01/03 12:48:10;;;;;;;9.30;7.18;;;4.60;83.50;;;;;;4981457;28;20138;-55
2021/01/03 12:50:36;;;;;;;7.95;6.35;;;4.50;83.60;;;;;;4973913;28;20078;-56
2021/01/03 12:53:02;;;;;;;8.35;6.43;;;4.50;84.00;;;;;;4988494;28;20043;-56
2021/01/03 12:55:27;;;;;;;11.88;6.85;;;4.50;83.00;;;;;;4974194;28;20047;-56
2021/01/03 12:57:53;;;;;;;9.60;6.80;;;4.50;84.20;;;;;;4974048;28;20076;-55
2021/01/03 13:00:19;;;;;;;8.10;6.28;;;4.50;84.00;;;;;;4978540;28;20084;-54